aviador You're here:

EGUL Decoded Metar

LAKENHEATH in ENGLAND
Report Time2017-05-29 01:23:00
UTC Time2017-05-29 02:01:29
Flight Rules vfr VFR
Wind100° at 05 kt
W.Decomp.*RWY 06: 3.8 kt HW 3.3 kt RCW
W.Rank100° ranks 31
Current wind is below 100° avg. (6.2)
Visibility9999 m
Phenomena:Light Rain
Clouds:Few 002 Hf
Overcast 039 Hf
Ceiling3,900 ft
Temp16°C (ISA +1)
Dew Point16°C (100% RH)
QNH1015 hPa
Density Alt331 ft
Elevation33 ft
Report Wrong Elevation
Raw Report
EGUL 290123Z AUTO 10005KT 9999 -RA FEW002 OVC039 16/16 A2997 RMK
AO2 RAB13 SLP152=

Extra information for EGUL:More info

Metar Taf Metar & Taf Last 4 Metars F.Rules Stats Wind Profile Meteogram Temp Stats Airport Information Weather charts Add Link Nearby VenuesMetar ALERT Operation Metar Decoded Social comments